메인 페이지
METAR-TAF:

METAR-TAF

공항 :

와가두구, 부르키나파소

위도: 12-21N, 경도: 001-31W, 고도: 316m

현재 날씨관측

예보는 1 시간 13분 전, 00:00시(UTC)에 발표되었습니다.
동남동4kt
온도 27°C
습도 79%
기압 1013 hPa
시정 10km 이상
1500m 미만 상공 구름 및 적란운 없음

METAR: DFFD 210000Z 12004KT CAVOK 27/23 Q1013 NOSIG

시각: 01:13 (01:13 UTC)

예보

예보는 2 시간 13분 전, 23:00시(UTC)에 발표되었습니다.
예보 대상 시간: 21일 00시부터 22일 06시까지 (UTC)
남남동8kt
시정 10km 이상
고도 2000ft 상공 구름 조금
확률 30% :
일시적
21일 02시부터 21일 06시까지 (UTC)
여러 방향의 바람 25kt, 순간 최대 풍속 35kt
시정: 4000m
고도 2000ft 상공 구름 보통
고도 3600ft 상공 구름 조금, 적란운.
날린모래, 뇌우, 비
일시적
21일 16시부터 21일 24시까지 (UTC)
여러 방향의 바람 25kt, 순간 최대 풍속 35kt
시정: 4000m
고도 2000ft 상공 구름 보통
고도 3600ft 상공 구름 조금, 적란운.
날린모래, 뇌우, 비

TAF: DFFD 202300Z 2100/2206 16008KT 9999 FEW020 PROB30 TEMPO 2102/2106 VRB25G35KT 4000 BLSA TSRA SCT020 FEW036CB TEMPO 2116/2124 VRB25G35KT 4000 BLSA TSRA SCT020 FEW036CB

4,000개 이상의 공항 관측 자료 및 예보 (METAR 및 TAF 보고).

지도상에서 검색 가능한 기상관측소가 노란 점과 빨간 점으로 표시되어 있습니다.

기상관측소 명을 보려면 표시 위로 마우스를 이동하세요.

날씨 관측과 예보를 보려면 클릭하세요.

지도 변경 : 확대하려면 엑스 표시가 있는 녹색 버튼, 축소하려면 빼기 표시가 있는 녹색 버튼, 다음 페이지의 지도를 보려면 녹색 화살표를 클릭하세요.


METAR-TAF: